Hadley, Kentucky
Current Conditions -  °F | °C
As of 11:53 AM on Tuesday 21 Oct 2014 (Local Time) from KBWG Reporting Station
Clear Clear  
Wind Chill: 65°   Ceiling: Unl
Heat Index: 65°   Visibility: 10mi
Dew Point: 47°   Wind: 3mph
Humidity: 52%   Direction: 290°WNW
Pressure: 30.08"   Gusts: NA
Location:  37.06°N, 86.61°W
Report Text: KBWG 211653Z AUTO 29003KT 10SM CLR 18/08 A3008 RMK AO2 SLP182 T01830083
Loading
Personal Weather Stations






























Interactive Weather Map
Tropical Storm Tracking
New forecast layout! Learn more

10-Day Weather Forecast

Advertisements
Track Severe Weather on mobile